Jackson, New Jersey
Current Conditions -  °F | °C
As of 5:15 AM on Thursday 29 Jan 2015 (Local Time) from KBLM Reporting Station
Clear Clear  
Wind Chill:   Ceiling: Unl
Heat Index: 12°   Visibility: 10mi
Dew Point: -2°   Wind: 6mph
Humidity: 53%   Direction: 310°NW
Pressure: 30.29"   Gusts: NA
Location:  40.12°N, 74.29°W
Report Text: KBLM 291015Z AUTO 31005KT 10SM CLR M11/M19 A3029 RMK AO1
Loading
Personal Weather Stations






























Interactive Weather Map New forecast layout! Learn more

10-Day Weather Forecast

Advertisements
Track Severe Weather on mobile